Terminal Aerodrome Forecast
Issued by NWS

Home | Current Version | Previous Version | Text Only | Print | Product List | Glossary On
Versions: 1 2 3 4 5 6 7 8 9 10 11 12 13 14 15 16 17 18 19 20 21 22 23 24 25 26 27
000
FTUS46 KSEW 191700
TAFSEA
TAF
KSEA 191732Z 1918/2024 20007KT P6SM FEW018 SCT030 BKN080
     FM192000 22008KT P6SM SCT035 BKN080
     FM192300 26005KT P6SM SCT035 BKN080
     FM200300 35005KT P6SM SCT080
     FM200600 02007KT P6SM SKC
     FM201100 02007KT 6SM BR OVC003
     FM202000 35012KT P6SM SKC=

USA.gov is the U.S. government's official web portal to all federal, state and local government web resources and services.